LFMY 181730Z AUTO 32012KT 270V350 CAVOK 25/15 Q1009

ElémentsDécodage
LFMY Station météo située sur l'aérodrome de SALON-DE-PROVENCE
181730Z émis le 18 du mois à 17h30 UTC
AUTO Bulletin édité par un automate
32012KT vent du 320°, 12 noeuds
270V350 vent de direction variable entre 270° et 350°
CAVOK Ceiling And Visibility OK
- Visibilité de 10 Km ou plus
- Pas de nuage au-dessous de 1500m ou au-dessous de l'altitude minimale du secteur la plus élevée (si>1500m) et absence de CB
- pas de temps présent significatif
25/15 température 25°C, point de rosée 15°C
 soit une humidité relative de 54%
Q1009 la pression au niveau de la mer (QNH) est de 1009 hPa